Nearby METAR Reports

 

KSJC - San Jose, California, USA
Distance from station: NE 14km
Actualización: 06/10/2022 04:53
Despejado
Despejado
 Viento del NO
Viento: NO 11 km/h
Temperatura: 20°C
Rocío: 14°C
Humedad: 69%
Barómetro: 1014.9 hPa
Clouds: Despejado
Visibility: 16 km
2022/10/06 02:53 KSJC 060253Z 32006KT 10SM CLR 20/14 A2997 RMK AO2 SLP147 T02000144 53008
KNUQ - Moffett Nas/Mtn, California, USA
Distance from station: N 14km
Actualización: 06/10/2022 05:35
Despejado
Despejado
 Viento del NO
Viento: NO 7 km/h
Temperatura: 18°C
Rocío: 13°C
Humedad: 73%
Barómetro: 1015.2 hPa
Clouds: Despejado
Visibility: 16 km
2022/10/06 03:35 KNUQ 060335Z AUTO 32004KT 10SM CLR 18/13 A2998 RMK AO2
 
KPAO - Palo Alto, California, USA
Distance from station: NNO 23km
Actualización: 06/10/2022 03:47
NOT Current
Despejado
Despejado
 Viento del ONO
Viento: ONO 11 km/h
Temperatura: 18°C
Rocío: 14°C
Humedad: 78%
Barómetro: 1014.6 hPa
Clouds: Despejado
Visibility: 16 km
2022/10/06 01:47 KPAO 060147Z 30006KT 10SM SKC 18/14 A2996
KRHV - San Jose/Reid, California, USA
Distance from station: ENE 19km
Actualización: 06/10/2022 03:47
NOT Current
Despejado
Despejado
 Viento del NO
Viento: NO 9 km/h
Temperatura: 24°C
Rocío: 13°C
Humedad: 50%
Barómetro: 1014.6 hPa
Clouds: Despejado
Visibility: 16 km
2022/10/06 01:47 KRHV 060147Z 31005KT 10SM SKC 24/13 A2996
 
KOAK - Oakland, California, USA
Distance from station: NNO 50km
Actualización: 06/10/2022 04:53
Few Clouds
Few Clouds
 Viento del ONO
Viento: ONO 15 km/h
Temperatura: 16°C
Rocío: 13°C
Humedad: 83%
Barómetro: 1015.2 hPa
Clouds: Few Clouds
Visibility: 16 km
Cloud details: Few Clouds 305 m
Few Clouds 5486 m
2022/10/06 02:53 KOAK 060253Z 30008KT 10SM FEW010 FEW180 16/13 A2998 RMK AO2 SLP150 T01560128 53005
KSQL - San Carlos Airpo, California, USA
Distance from station: NO 34km
Actualización: 06/10/2022 04:47
Despejado
Despejado
 Viento del NO
Viento: NO 9 km/h
Temperatura: 18°C
Rocío: 14°C
Humedad: 78%
Barómetro: 1015.2 hPa
Clouds: Despejado
Visibility: 16 km
2022/10/06 02:47 KSQL 060247Z 31005KT 10SM CLR 18/14 A2998
 
KSFO - San Francisco, California, USA
Distance from station: NO 49km
Actualización: 06/10/2022 04:56
Few Clouds
Few Clouds
 Viento del ONO
Viento: ONO 24 km/h
Temperatura: 14°C
Rocío: 12°C
Humedad: 88%
Barómetro: 1014.9 hPa
Clouds: Few Clouds
Visibility: 16 km
Cloud details: Few Clouds 91 m
2022/10/06 02:56 KSFO 060256Z 30013KT 10SM FEW003 14/12 A2997 RMK AO2 SLP148 T01390122 53004
KE16 - San Martin, California, USA
Distance from station: ESE 43km
Actualización: 06/10/2022 05:35
Despejado
Despejado
 Viento del SSE
Viento: SSE 9 km/h
Temperatura: 19°C
Rocío: 12°C
Humedad: 64%
Barómetro: 1015.6 hPa
Clouds: Despejado
Visibility: 16 km
2022/10/06 03:35 KE16 060335Z AUTO 16005KT 10SM CLR 19/12 A2999 RMK AO2 PWINO PNO
 
KWVI - Watsonville, California, USA
Distance from station: SSE 44km
Actualización: 06/10/2022 05:45
Mist, Cubierto
Mist, Cubierto
 Viento del SE
Viento: SE 6 km/h
Temperatura: 13°C
Rocío: 13°C
Humedad: 100%
Barómetro: 1016.3 hPa
Resumen: Mist
Clouds: Cubierto
Visibility: 2 km
Cloud details: Cubierto 61 m
2022/10/06 03:45 KWVI 060345Z AUTO 13003KT 1SM BR VV002 13/13 A3001 RMK AO2 T01280128
KHAF - Half Moon Bay, California, USA
Distance from station: ONO 50km
Actualización: 06/10/2022 05:35
Niebla, Cubierto
Niebla, Cubierto
 Viento del NNE
Viento: NNE 7 km/h
Temperatura: 12°C
Rocío: 12°C
Humedad: 100%
Barómetro: 1015.9 hPa
Resumen: Niebla
Clouds: Cubierto
Visibility: 0.8 km
Cloud details: Cubierto 61 m
2022/10/06 03:35 KHAF 060335Z AUTO 02004KT 1/2SM FG OVC002 12/12 A3000 RMK AO2
 
KHWD - Hayward, California, USA
Distance from station: N 44km
Actualización: 06/10/2022 04:54
Despejado
Despejado
 Viento del ONO
Viento: ONO 13 km/h
Temperatura: 17°C
Rocío: 14°C
Humedad: 83%
Barómetro: 1014.9 hPa
Clouds: Despejado
Visibility: 16 km
2022/10/06 02:54 KHWD 060254Z 29007KT 10SM CLR 17/14 A2997 RMK AO2 SLP157 T01720139 53006
KLVK - Livermore, California, USA
Distance from station: NNE 51km
Actualización: 06/10/2022 04:53
Despejado
Despejado
 Viento del NNO
Viento: NNO 6 km/h
Temperatura: 24°C
Rocío: 11°C
Humedad: 44%
Barómetro: 1014.2 hPa
Clouds: Despejado
Visibility: 16 km
2022/10/06 02:53 KLVK 060253Z 34003KT 10SM CLR 24/11 A2995 RMK AO2 SLP140 T02390106 53009